Time;durP1;ratioP1;P1;durP2;ratioP2;P2;SDS_P1;SDS_P2;PMS_P1;PMS_P2;Temp;Humidity;BMP_temperature;BMP_pressure;BME280_temperature;BME280_humidity;BME280_pressure;Samples;Min_cycle;Max_cycle;Signal;HPM_P1;HPM_P2
2022/11/11 00:02:11;;;;;;;7.13;6.30;;;5.20;99.90;;;;;;5035515;28;20165;-87
2022/11/11 00:04:55;;;;;;;7.33;6.47;;;5.20;99.90;;;;;;5034155;28;20226;-86
2022/11/11 00:07:39;;;;;;;6.40;5.63;;;5.20;99.90;;;;;;5035106;28;20244;-86
2022/11/11 00:10:29;;;;;;;7.57;6.13;;;5.10;99.90;;;;;;5034294;28;20175;-86
2022/11/11 00:13:13;;;;;;;6.67;5.83;;;5.10;99.90;;;;;;5028599;28;20222;-86
2022/11/11 00:16:07;;;;;;;7.47;6.13;;;5.00;99.90;;;;;;5031473;28;20185;-86
2022/11/11 00:25:06;;;;;;;8.43;6.17;;;4.90;99.90;;;;;;5034994;28;20231;-86
2022/11/11 00:27:51;;;;;;;6.50;5.63;;;4.90;99.90;;;;;;5033942;28;20185;-86
2022/11/11 00:30:35;;;;;;;9.50;5.50;;;4.80;99.90;;;;;;5033895;28;20200;-86
2022/11/11 00:33:20;;;;;;;5.30;4.53;;;4.80;99.90;;;;;;5034830;28;20232;-86
2022/11/11 00:36:07;;;;;;;6.77;4.93;;;4.80;99.90;;;;;;5031465;28;20201;-86
2022/11/11 00:38:54;;;;;;;5.10;4.60;;;4.80;99.90;;;;;;5047221;28;20207;-86
2022/11/11 00:41:38;;;;;;;6.97;5.20;;;4.80;99.90;;;;;;5047771;28;20176;-86
2022/11/11 00:44:23;;;;;;;9.10;6.07;;;4.70;99.90;;;;;;5034659;28;20226;-87
2022/11/11 00:53:23;;;;;;;8.67;5.60;;;4.60;99.90;;;;;;5034521;28;20203;-86
2022/11/11 00:56:08;;;;;;;8.73;5.73;;;4.60;99.90;;;;;;5033291;28;20178;-86
2022/11/11 00:58:53;;;;;;;6.50;5.30;;;4.60;99.90;;;;;;5033313;28;20205;-86
2022/11/11 01:05:25;;;;;;;9.97;5.90;;;4.50;99.90;;;;;;5034738;28;20198;-86
2022/11/11 01:08:17;;;;;;;7.10;4.80;;;4.40;99.90;;;;;;5044418;28;20256;-86
2022/11/11 01:11:03;;;;;;;10.83;5.40;;;4.40;99.90;;;;;;5045150;28;20720;-86
2022/11/11 01:13:54;;;;;;;7.87;5.40;;;4.30;99.90;;;;;;5042144;28;20244;-86
2022/11/11 01:16:39;;;;;;;6.37;5.17;;;4.30;99.90;;;;;;5044379;28;20245;-86
2022/11/11 01:19:23;;;;;;;17.33;6.17;;;4.30;99.90;;;;;;5042048;28;20196;-86
2022/11/11 01:22:07;;;;;;;7.23;5.40;;;4.30;99.90;;;;;;5053549;28;20179;-86
2022/11/11 01:24:52;;;;;;;11.17;5.37;;;4.30;99.90;;;;;;5052426;28;20229;-86
2022/11/11 01:27:36;;;;;;;19.00;5.27;;;4.30;99.90;;;;;;5044860;28;20197;-86
2022/11/11 01:30:20;;;;;;;14.63;5.20;;;4.40;99.90;;;;;;5041939;28;20197;-86
2022/11/11 01:33:05;;;;;;;10.03;5.20;;;4.40;99.90;;;;;;5055918;28;20236;-86
2022/11/11 01:35:49;;;;;;;11.23;4.47;;;4.30;99.90;;;;;;5032101;28;20193;-86
2022/11/11 01:38:34;;;;;;;4.77;4.23;;;4.30;99.90;;;;;;5032534;28;20233;-86
2022/11/11 01:41:35;;;;;;;6.77;4.67;;;4.30;99.90;;;;;;5032876;28;20186;-86
2022/11/11 01:44:41;;;;;;;7.90;4.10;;;4.20;99.90;;;;;;5032464;28;20214;-86
2022/11/11 01:49:17;;;;;;;6.13;4.10;;;4.30;99.90;;;;;;5012524;28;20189;-86
2022/11/11 01:50:30;;;;;;;5.23;3.90;;;4.20;99.90;;;;;;5013675;28;20190;-86
2022/11/11 01:53:14;;;;;;;4.20;3.80;;;4.20;99.90;;;;;;5012760;28;20219;-86
2022/11/11 01:56:01;;;;;;;4.50;3.87;;;4.10;99.90;;;;;;5017158;28;20216;-86
2022/11/11 01:58:45;;;;;;;7.77;4.27;;;4.10;99.90;;;;;;5033153;28;20264;-86
2022/11/11 02:01:30;;;;;;;9.20;4.53;;;4.00;99.90;;;;;;5032417;28;20261;-86
2022/11/11 02:07:18;;;;;;;5.57;4.37;;;3.90;99.90;;;;;;5013504;28;20226;-86
2022/11/11 02:10:07;;;;;;;5.50;4.50;;;3.80;99.90;;;;;;5012390;28;20202;-86
2022/11/11 02:15:55;;;;;;;7.27;5.70;;;3.80;99.90;;;;;;5033101;28;20216;-86
2022/11/11 02:18:41;;;;;;;9.73;5.60;;;3.80;99.90;;;;;;5031698;28;20209;-86
2022/11/11 02:21:40;;;;;;;9.10;5.93;;;3.80;99.90;;;;;;5031192;28;20201;-86
2022/11/11 02:24:26;;;;;;;6.13;4.30;;;3.90;99.90;;;;;;5031935;28;20248;-86
2022/11/11 02:27:15;;;;;;;5.17;4.00;;;3.80;99.90;;;;;;5032778;28;20197;-86
2022/11/11 02:30:03;;;;;;;6.27;3.90;;;3.80;99.90;;;;;;5031779;28;20254;-86
2022/11/11 02:32:50;;;;;;;10.83;5.70;;;3.80;99.90;;;;;;5032996;28;20189;-86
2022/11/11 02:35:37;;;;;;;58.40;7.23;;;3.50;99.90;;;;;;5031565;28;20218;-86
2022/11/11 02:38:25;;;;;;;52.33;7.90;;;3.40;99.90;;;;;;5025702;28;20241;-86
2022/11/11 02:44:13;;;;;;;36.93;7.13;;;3.20;99.90;;;;;;5012923;28;20209;-86
2022/11/11 02:46:57;;;;;;;27.60;7.57;;;3.20;99.90;;;;;;5031011;28;20190;-86
2022/11/11 02:49:42;;;;;;;5.97;5.00;;;3.00;99.90;;;;;;5031802;28;20193;-86
2022/11/11 02:52:26;;;;;;;14.53;5.93;;;3.00;99.90;;;;;;5031451;28;20190;-86
2022/11/11 02:55:11;;;;;;;80.37;9.20;;;3.00;99.90;;;;;;5031583;28;20208;-86
2022/11/11 02:57:56;;;;;;;50.60;8.33;;;2.90;99.90;;;;;;5031345;28;20244;-86
2022/11/11 03:00:41;;;;;;;89.23;10.83;;;2.90;99.90;;;;;;5031712;28;20181;-86
2022/11/11 03:03:26;;;;;;;19.70;6.57;;;2.90;99.90;;;;;;5032556;28;20250;-86
2022/11/11 03:06:10;;;;;;;29.63;7.90;;;2.80;99.90;;;;;;5013691;28;20597;-86
2022/11/11 03:08:55;;;;;;;26.17;6.53;;;2.80;99.90;;;;;;5011646;28;20214;-86
2022/11/11 03:11:40;;;;;;;20.30;5.83;;;2.80;99.90;;;;;;5011922;28;20190;-86
2022/11/11 03:14:24;;;;;;;19.40;5.23;;;2.80;99.90;;;;;;5016271;28;20248;-86
2022/11/11 03:23:18;;;;;;;5.67;4.93;;;2.90;99.90;;;;;;5032461;28;20229;-86
2022/11/11 03:26:02;;;;;;;5.43;4.83;;;3.00;99.90;;;;;;5031200;28;20186;-86
2022/11/11 03:28:47;;;;;;;5.23;4.73;;;3.10;99.90;;;;;;5031665;28;20191;-86
2022/11/11 03:31:31;;;;;;;5.20;4.70;;;3.20;99.90;;;;;;5023361;28;20251;-86
2022/11/11 03:34:19;;;;;;;5.47;4.97;;;3.20;99.90;;;;;;5030911;28;20262;-86
2022/11/11 03:40:09;;;;;;;4.43;3.87;;;3.20;99.90;;;;;;5036030;28;20173;-86
2022/11/11 03:42:53;;;;;;;4.27;3.50;;;3.30;99.90;;;;;;5035085;28;20264;-86
2022/11/11 03:45:38;;;;;;;3.50;3.20;;;3.40;99.90;;;;;;5034817;28;20570;-86
2022/11/11 03:48:25;;;;;;;3.40;3.00;;;3.40;99.90;;;;;;5035457;28;20189;-86
2022/11/11 03:51:09;;;;;;;4.00;3.37;;;3.40;99.90;;;;;;5034706;28;20190;-86
2022/11/11 03:53:54;;;;;;;3.03;2.80;;;3.50;99.90;;;;;;5034607;28;20216;-86
2022/11/11 03:56:38;;;;;;;4.60;3.33;;;3.40;99.90;;;;;;5034736;28;20213;-86
2022/11/11 03:59:23;;;;;;;4.57;3.30;;;3.40;99.90;;;;;;5035426;28;20190;-86
2022/11/11 04:11:54;;;;;;;3.13;2.80;;;3.50;99.90;;;;;;5015725;28;20183;-86
2022/11/11 04:17:43;;;;;;;4.27;3.60;;;3.20;99.90;;;;;;5026931;28;20306;-86
2022/11/11 04:23:30;;;;;;;4.80;3.90;;;3.20;99.90;;;;;;5017677;28;20256;-86
2022/11/11 04:26:15;;;;;;;5.33;4.40;;;3.20;99.90;;;;;;5035234;28;20201;-86
2022/11/11 04:35:12;;;;;;;4.70;4.03;;;3.20;99.90;;;;;;5033818;28;20229;-86
2022/11/11 04:41:02;;;;;;;9.63;7.37;;;3.30;99.90;;;;;;5033509;28;20209;-86
2022/11/11 04:41:04;;;;;;;5.20;4.23;;;3.30;99.90;;;;;;5034624;28;20169;-86
2022/11/11 04:46:52;;;;;;;4.00;3.60;;;3.30;99.90;;;;;;5034502;28;20201;-86
2022/11/11 04:49:37;;;;;;;3.60;3.30;;;3.30;99.90;;;;;;5033984;28;20196;-87
2022/11/11 04:52:36;;;;;;;3.60;3.30;;;3.30;99.90;;;;;;5034854;28;20194;-86
2022/11/11 04:58:28;;;;;;;3.40;3.10;;;3.20;99.90;;;;;;5034012;28;20217;-86
2022/11/11 05:03:14;;;;;;;3.30;3.00;;;3.20;99.90;;;;;;5030287;28;20247;-86
2022/11/11 05:04:25;;;;;;;3.27;2.97;;;3.20;99.90;;;;;;5037756;28;20245;-86
2022/11/11 05:10:12;;;;;;;3.70;3.40;;;3.10;99.90;;;;;;5029356;28;20181;-86
2022/11/11 05:21:19;;;;;;;3.53;3.23;;;3.10;99.90;;;;;;5033579;28;20189;-86
2022/11/11 05:22:29;;;;;;;5.70;4.60;;;3.20;99.90;;;;;;5014396;28;20213;-86
2022/11/11 05:25:25;;;;;;;5.07;4.40;;;3.30;99.90;;;;;;5027182;28;20257;-86
2022/11/11 05:28:10;;;;;;;5.03;4.13;;;3.20;99.90;;;;;;5013149;28;20195;-87
2022/11/11 05:30:54;;;;;;;6.00;4.67;;;3.20;99.90;;;;;;5013924;28;20690;-87
2022/11/11 05:33:39;;;;;;;5.10;4.50;;;3.20;99.90;;;;;;5013653;28;20210;-86
2022/11/11 05:36:23;;;;;;;5.30;4.57;;;3.20;99.90;;;;;;5013758;28;20248;-86
2022/11/11 05:39:08;;;;;;;6.90;4.23;;;3.20;99.90;;;;;;5034932;28;20220;-86
2022/11/11 05:41:53;;;;;;;5.30;4.30;;;3.30;99.90;;;;;;5043583;28;20190;-87
2022/11/11 05:44:38;;;;;;;5.50;4.47;;;3.20;99.90;;;;;;5033378;28;20209;-87
2022/11/11 05:47:22;;;;;;;4.73;3.60;;;3.20;99.90;;;;;;5033040;28;20197;-87
2022/11/11 05:50:07;;;;;;;4.97;4.27;;;3.10;99.90;;;;;;5033075;28;20241;-87
2022/11/11 05:52:51;;;;;;;5.57;4.70;;;3.10;99.90;;;;;;5033254;28;20236;-86
2022/11/11 05:55:36;;;;;;;4.23;3.83;;;3.00;99.90;;;;;;5032684;28;20213;-87
2022/11/11 05:58:20;;;;;;;5.63;4.27;;;3.00;99.90;;;;;;5032466;28;20217;-87
2022/11/11 06:01:05;;;;;;;7.03;4.10;;;3.00;99.90;;;;;;5032802;28;20209;-86
2022/11/11 06:03:49;;;;;;;4.40;3.97;;;2.90;99.90;;;;;;5028244;28;20261;-86
2022/11/11 06:06:35;;;;;;;5.63;4.40;;;2.90;99.90;;;;;;5023110;28;20179;-87
2022/11/11 06:09:20;;;;;;;6.90;4.83;;;2.90;99.90;;;;;;5032466;28;20184;-87
2022/11/11 06:12:04;;;;;;;8.17;6.13;;;2.90;99.90;;;;;;5032571;28;20248;-86
2022/11/11 06:14:48;;;;;;;10.07;6.93;;;2.90;99.90;;;;;;5032490;28;20208;-86
2022/11/11 06:17:33;;;;;;;5.90;5.30;;;2.90;99.90;;;;;;5032525;28;20213;-86
2022/11/11 06:20:18;;;;;;;5.27;4.77;;;2.90;99.90;;;;;;5022388;28;20202;-86
2022/11/11 06:23:04;;;;;;;7.20;4.97;;;2.90;99.90;;;;;;5021344;28;20224;-87
2022/11/11 06:28:54;;;;;;;5.23;4.50;;;2.90;99.90;;;;;;5032536;28;20248;-86
2022/11/11 06:31:39;;;;;;;5.83;4.50;;;2.90;99.90;;;;;;5012503;28;20171;-85
2022/11/11 06:34:24;;;;;;;6.83;5.73;;;2.90;99.90;;;;;;5030226;28;20225;-85
2022/11/11 06:37:12;;;;;;;5.40;4.90;;;2.90;99.90;;;;;;5045254;28;20255;-86
2022/11/11 06:39:58;;;;;;;5.53;4.77;;;2.90;99.90;;;;;;5032389;28;20185;-85
2022/11/11 06:42:42;;;;;;;4.80;4.30;;;2.90;99.90;;;;;;5031915;28;20176;-85
2022/11/11 06:45:29;;;;;;;5.33;4.33;;;2.90;99.90;;;;;;5024133;28;20209;-85
2022/11/11 06:48:14;;;;;;;4.90;4.10;;;2.90;99.90;;;;;;5011771;28;20245;-85
2022/11/11 06:51:05;;;;;;;4.70;4.20;;;2.90;99.90;;;;;;5011604;28;20201;-85
2022/11/11 06:53:51;;;;;;;6.63;4.40;;;2.90;99.90;;;;;;5013165;28;20749;-85
2022/11/11 06:56:35;;;;;;;8.27;4.20;;;2.90;99.90;;;;;;5012916;28;20186;-85
2022/11/11 06:59:20;;;;;;;5.20;3.67;;;3.00;99.90;;;;;;5011859;28;20560;-85
2022/11/11 07:02:12;;;;;;;6.53;4.17;;;3.00;99.90;;;;;;5025446;28;20193;-85
2022/11/11 07:04:59;;;;;;;4.87;4.17;;;3.00;99.90;;;;;;5032608;28;20233;-85
2022/11/11 07:07:44;;;;;;;6.30;4.03;;;3.00;99.90;;;;;;5012928;28;20190;-85
2022/11/11 07:10:28;;;;;;;5.03;4.07;;;3.10;99.90;;;;;;5017777;28;20183;-86
2022/11/11 07:13:33;;;;;;;4.70;4.20;;;3.10;99.90;;;;;;5033772;28;20287;-86
2022/11/11 07:16:21;;;;;;;6.03;4.70;;;3.20;99.90;;;;;;5035947;28;20181;-86
2022/11/11 07:19:05;;;;;;;5.43;4.87;;;3.20;99.90;;;;;;5035605;28;20197;-86
2022/11/11 07:21:56;;;;;;;6.20;5.20;;;3.30;99.90;;;;;;5035854;28;20174;-86
2022/11/11 07:24:41;;;;;;;6.90;4.93;;;3.30;99.90;;;;;;5035575;28;20317;-86
2022/11/11 07:27:26;;;;;;;9.30;6.30;;;3.30;99.90;;;;;;5035476;28;20174;-86
2022/11/11 07:30:11;;;;;;;14.37;8.20;;;3.40;99.90;;;;;;5035165;28;20205;-86
2022/11/11 07:32:56;;;;;;;10.50;5.70;;;3.40;99.90;;;;;;5034757;28;20271;-86
2022/11/11 07:35:40;;;;;;;6.90;5.30;;;3.40;99.90;;;;;;5020056;28;20202;-86
2022/11/11 07:38:25;;;;;;;7.40;4.70;;;3.40;99.90;;;;;;5015175;28;20206;-86
2022/11/11 07:41:10;;;;;;;8.30;6.13;;;3.40;99.90;;;;;;5015547;28;20250;-86
2022/11/11 07:43:54;;;;;;;9.23;4.63;;;3.50;99.90;;;;;;5015472;28;20244;-85
2022/11/11 07:46:39;;;;;;;5.13;4.63;;;3.60;99.90;;;;;;5016574;28;20209;-86
2022/11/11 07:49:23;;;;;;;5.53;4.70;;;3.60;99.90;;;;;;5015274;28;20183;-86
2022/11/11 07:52:08;;;;;;;6.23;5.07;;;3.60;99.90;;;;;;5015637;28;20221;-86
2022/11/11 07:54:52;;;;;;;5.53;4.97;;;3.60;99.90;;;;;;5016265;28;20238;-85
2022/11/11 07:57:37;;;;;;;5.33;4.63;;;3.70;99.90;;;;;;5015213;28;20695;-86
2022/11/11 08:00:22;;;;;;;5.13;4.47;;;3.80;99.90;;;;;;5015492;28;20186;-86
2022/11/11 08:03:06;;;;;;;7.93;4.63;;;3.80;99.90;;;;;;5014879;28;20663;-79
2022/11/11 08:05:51;;;;;;;5.20;4.70;;;3.80;99.90;;;;;;5029703;28;20199;-78
2022/11/11 08:08:35;;;;;;;6.20;5.60;;;3.80;99.90;;;;;;5033724;28;20190;-78
2022/11/11 08:13:39;;;;;;;6.20;5.30;;;3.80;99.90;;;;;;5033818;28;20278;-86
2022/11/11 08:14:24;;;;;;;7.40;5.60;;;3.90;99.90;;;;;;5034917;28;20201;-85
2022/11/11 08:17:09;;;;;;;6.37;5.60;;;4.00;99.90;;;;;;5033592;28;20182;-86
2022/11/11 08:19:54;;;;;;;5.37;4.87;;;4.00;99.90;;;;;;5033384;28;20174;-85
2022/11/11 08:22:41;;;;;;;4.27;3.87;;;4.20;99.90;;;;;;5034253;28;20174;-86
2022/11/11 08:25:25;;;;;;;4.90;4.40;;;4.30;99.90;;;;;;5034198;28;20197;-86
2022/11/11 08:28:13;;;;;;;4.70;4.30;;;4.40;99.90;;;;;;5034180;28;20193;-86
2022/11/11 08:30:59;;;;;;;4.90;4.23;;;4.50;99.90;;;;;;5035027;28;20178;-86
2022/11/11 08:33:44;;;;;;;5.57;4.43;;;4.50;99.90;;;;;;5034061;28;20320;-86
2022/11/11 08:36:28;;;;;;;5.63;4.70;;;4.60;99.90;;;;;;5034390;28;20174;-86
2022/11/11 08:39:13;;;;;;;5.37;4.50;;;4.70;99.90;;;;;;5033327;28;20233;-86
2022/11/11 08:41:57;;;;;;;6.00;4.90;;;4.80;99.90;;;;;;5034108;28;20201;-86
2022/11/11 08:44:42;;;;;;;5.27;4.00;;;5.00;99.90;;;;;;5034695;28;20203;-86
2022/11/11 08:47:27;;;;;;;5.57;4.70;;;5.10;99.90;;;;;;5033684;28;20233;-86
2022/11/11 08:50:12;;;;;;;6.97;5.53;;;5.30;99.90;;;;;;5034539;28;20184;-85
2022/11/11 08:52:57;;;;;;;6.57;5.83;;;5.40;99.90;;;;;;5033918;28;20248;-86
2022/11/11 08:55:41;;;;;;;7.70;5.83;;;5.50;99.90;;;;;;5033450;28;20290;-86
2022/11/11 08:58:26;;;;;;;6.33;5.03;;;5.60;99.90;;;;;;5033397;28;20197;-86
2022/11/11 09:01:22;;;;;;;4.90;4.40;;;5.70;99.90;;;;;;5033354;28;20222;-86
2022/11/11 09:04:06;;;;;;;6.33;4.20;;;5.80;99.90;;;;;;5033389;28;20291;-86
2022/11/11 09:06:51;;;;;;;5.93;4.40;;;5.90;99.90;;;;;;5033112;28;20177;-86
2022/11/11 09:09:35;;;;;;;5.10;4.20;;;6.00;99.90;;;;;;5034153;28;20200;-86
2022/11/11 09:12:20;;;;;;;6.57;4.30;;;6.10;99.90;;;;;;5047482;28;20261;-86
2022/11/11 09:15:05;;;;;;;5.47;4.03;;;6.20;99.90;;;;;;5047200;28;20211;-86
2022/11/11 09:17:49;;;;;;;4.80;3.80;;;6.30;99.90;;;;;;5033391;28;20292;-86
2022/11/11 09:20:33;;;;;;;6.43;4.80;;;6.40;99.90;;;;;;5047687;28;20178;-86
2022/11/11 09:23:18;;;;;;;5.67;4.37;;;6.50;99.90;;;;;;5066156;28;20274;-86
2022/11/11 09:26:03;;;;;;;9.30;5.10;;;6.50;99.90;;;;;;5053248;28;20206;-86
2022/11/11 09:28:47;;;;;;;9.20;5.50;;;6.60;99.90;;;;;;5053150;28;20266;-86
2022/11/11 09:31:32;;;;;;;5.30;4.80;;;6.60;99.90;;;;;;5052872;28;20168;-86
2022/11/11 09:34:16;;;;;;;5.60;4.53;;;6.70;99.90;;;;;;5051800;28;20216;-86
2022/11/11 09:37:01;;;;;;;6.23;5.00;;;6.80;99.90;;;;;;5046896;28;20186;-86
2022/11/11 09:39:45;;;;;;;8.27;5.53;;;6.90;99.90;;;;;;5047322;28;20173;-86
2022/11/11 09:42:53;;;;;;;7.67;4.90;;;6.90;99.90;;;;;;5033922;28;20634;-86
2022/11/11 09:45:51;;;;;;;5.93;4.80;;;7.10;99.90;;;;;;5047084;28;20248;-86
2022/11/11 09:49:10;;;;;;;8.37;5.20;;;7.10;99.90;;;;;;5046901;28;20174;-86
2022/11/11 09:52:05;;;;;;;8.20;5.17;;;7.30;99.90;;;;;;5032628;28;20253;-86
2022/11/11 09:55:05;;;;;;;6.80;5.00;;;7.40;99.90;;;;;;5046954;28;20206;-86
2022/11/11 09:57:57;;;;;;;4.93;4.43;;;7.60;99.90;;;;;;5046815;28;20229;-86
2022/11/11 10:00:45;;;;;;;7.20;4.50;;;7.70;99.90;;;;;;5046998;28;20175;-86
2022/11/11 10:03:32;;;;;;;5.47;4.53;;;7.90;99.90;;;;;;5046617;28;20178;-86
2022/11/11 10:06:30;;;;;;;6.97;4.50;;;8.00;99.90;;;;;;5027637;28;20222;-86
2022/11/11 10:09:24;;;;;;;5.20;4.40;;;8.10;99.90;;;;;;5012637;28;20175;-86
2022/11/11 10:12:14;;;;;;;4.97;4.40;;;8.30;99.90;;;;;;5013787;28;20309;-86
2022/11/11 10:15:00;;;;;;;5.83;4.60;;;8.40;99.90;;;;;;5012967;28;20257;-86
2022/11/11 10:18:15;;;;;;;4.67;4.27;;;8.50;99.90;;;;;;5012576;28;20258;-86
2022/11/11 10:21:04;;;;;;;7.73;4.83;;;8.70;99.90;;;;;;5026606;28;20226;-86
2022/11/11 10:23:51;;;;;;;6.50;4.50;;;8.80;99.90;;;;;;5012706;28;20210;-86
2022/11/11 10:26:39;;;;;;;6.00;4.37;;;9.00;99.90;;;;;;5012649;28;20178;-86
2022/11/11 10:29:29;;;;;;;5.10;4.60;;;9.00;99.90;;;;;;5012811;28;20175;-86
2022/11/11 10:32:20;;;;;;;5.23;4.47;;;9.10;99.90;;;;;;5012709;28;20191;-86
2022/11/11 10:35:29;;;;;;;6.37;4.60;;;9.20;99.90;;;;;;5022354;28;20221;-86
2022/11/11 10:38:41;;;;;;;5.80;4.10;;;9.20;99.90;;;;;;5031886;28;20233;-86
2022/11/11 10:41:37;;;;;;;4.73;4.20;;;9.30;99.90;;;;;;5046255;28;20194;-86
2022/11/11 10:44:21;;;;;;;4.50;3.90;;;9.40;99.90;;;;;;5045645;28;20256;-86
2022/11/11 10:47:24;;;;;;;6.53;4.00;;;9.30;99.90;;;;;;5046072;28;20189;-86
2022/11/11 10:50:29;;;;;;;5.60;4.13;;;9.40;99.90;;;;;;5032991;28;20259;-86
2022/11/11 10:53:43;;;;;;;5.17;4.00;;;9.40;99.90;;;;;;5045231;28;20166;-86
2022/11/11 10:56:56;;;;;;;6.27;4.27;;;9.60;99.90;;;;;;5046330;28;20254;-86
2022/11/11 10:59:47;;;;;;;4.33;3.77;;;9.50;99.90;;;;;;5046032;28;20221;-86
2022/11/11 11:03:04;;;;;;;5.10;4.10;;;9.60;99.90;;;;;;5033217;28;20161;-86
2022/11/11 11:05:56;;;;;;;6.07;4.10;;;9.70;99.90;;;;;;5030957;28;20282;-86
2022/11/11 11:08:46;;;;;;;5.37;4.37;;;9.80;99.90;;;;;;5013226;28;20175;-86
2022/11/11 11:11:58;;;;;;;5.27;4.53;;;9.80;99.90;;;;;;5012152;28;20179;-86
2022/11/11 11:14:47;;;;;;;4.10;3.60;;;9.90;99.90;;;;;;5011941;28;20259;-86
2022/11/11 11:17:41;;;;;;;5.53;4.30;;;10.00;99.90;;;;;;5011964;28;20211;-86
2022/11/11 11:20:25;;;;;;;5.37;4.07;;;10.00;99.90;;;;;;5012017;28;20226;-86
2022/11/11 11:23:10;;;;;;;5.80;4.43;;;10.20;99.90;;;;;;5012310;28;20218;-86
2022/11/11 11:25:55;;;;;;;5.23;4.10;;;10.20;99.90;;;;;;5012217;28;20213;-86
2022/11/11 11:28:55;;;;;;;4.50;4.10;;;10.30;99.90;;;;;;5012035;28;20226;-86
2022/11/11 11:31:41;;;;;;;6.43;3.70;;;10.40;99.90;;;;;;5026278;28;20203;-86
2022/11/11 11:34:49;;;;;;;6.53;3.87;;;10.50;99.90;;;;;;5012153;28;20254;-86
2022/11/11 11:37:49;;;;;;;4.30;3.77;;;10.60;99.90;;;;;;5012031;28;20287;-86
2022/11/11 11:40:55;;;;;;;5.13;3.80;;;10.80;99.90;;;;;;5012128;28;20177;-86
2022/11/11 11:43:44;;;;;;;4.40;4.00;;;10.90;99.90;;;;;;5031547;28;20240;-86
2022/11/11 11:46:39;;;;;;;5.73;4.37;;;11.00;99.90;;;;;;5012013;28;20172;-86
2022/11/11 11:49:29;;;;;;;6.37;4.53;;;11.00;99.90;;;;;;5011960;28;20163;-86
2022/11/11 11:52:16;;;;;;;7.80;4.33;;;11.10;99.90;;;;;;5025690;28;20201;-86
2022/11/11 11:55:18;;;;;;;4.90;4.30;;;11.10;99.90;;;;;;5028517;28;20220;-86
2022/11/11 11:58:12;;;;;;;6.17;4.77;;;11.20;99.90;;;;;;5015053;28;20209;-86
2022/11/11 12:01:11;;;;;;;6.47;4.00;;;11.30;99.90;;;;;;5028982;28;20213;-86
2022/11/11 12:04:01;;;;;;;7.33;4.80;;;11.30;99.90;;;;;;5015056;28;20240;-86
2022/11/11 12:07:15;;;;;;;6.70;4.43;;;11.30;99.90;;;;;;5028588;28;20173;-86
2022/11/11 12:10:25;;;;;;;8.03;5.00;;;11.40;99.90;;;;;;5015047;28;20205;-86
2022/11/11 12:13:31;;;;;;;6.63;4.77;;;11.30;99.90;;;;;;5029034;28;20184;-86
2022/11/11 12:16:30;;;;;;;5.43;4.20;;;11.40;99.90;;;;;;5015947;28;20177;-86
2022/11/11 12:19:37;;;;;;;6.07;4.63;;;11.50;99.90;;;;;;5015785;28;20198;-86
2022/11/11 12:22:28;;;;;;;6.73;4.80;;;11.50;99.90;;;;;;5015755;28;20177;-86
2022/11/11 12:25:46;;;;;;;10.43;4.67;;;11.60;99.90;;;;;;5031164;28;20219;-86
2022/11/11 12:28:43;;;;;;;6.00;4.83;;;11.70;99.90;;;;;;5027511;28;20182;-86
2022/11/11 12:31:59;;;;;;;7.20;5.00;;;11.80;99.90;;;;;;5015947;28;20181;-86
2022/11/11 12:35:03;;;;;;;6.30;4.63;;;11.90;99.90;;;;;;5020853;28;20228;-86
2022/11/11 12:37:56;;;;;;;6.00;4.27;;;12.10;99.90;;;;;;5028593;28;20216;-87
2022/11/11 12:41:33;;;;;;;4.90;4.27;;;12.30;99.90;;;;;;5014936;28;20206;-87
2022/11/11 12:44:23;;;;;;;7.33;4.40;;;12.60;99.90;;;;;;5032293;28;20214;-87
2022/11/11 12:47:10;;;;;;;5.33;4.63;;;12.70;99.90;;;;;;5054214;28;20188;-87
2022/11/11 12:50:30;;;;;;;6.13;4.53;;;12.90;99.90;;;;;;5042761;28;20201;-87
2022/11/11 12:53:29;;;;;;;4.70;4.07;;;12.90;99.90;;;;;;5029687;28;20252;-87
2022/11/11 12:56:34;;;;;;;4.57;3.80;;;13.00;99.90;;;;;;5048139;28;20166;-87
2022/11/11 12:59:30;;;;;;;5.60;3.33;;;13.10;99.90;;;;;;5047897;28;20205;-86
2022/11/11 13:02:29;;;;;;;3.30;3.00;;;12.90;99.90;;;;;;5048253;28;20642;-87
2022/11/11 13:05:57;;;;;;;4.07;3.67;;;12.90;99.90;;;;;;5047052;28;20218;-87
2022/11/11 13:09:02;;;;;;;5.63;3.40;;;12.90;99.90;;;;;;4999049;28;20178;-87
2022/11/11 13:12:11;;;;;;;4.30;3.33;;;13.00;99.90;;;;;;4993380;28;20179;-86
2022/11/11 13:15:04;;;;;;;4.97;3.47;;;13.10;99.90;;;;;;5021030;28;20231;-87
2022/11/11 13:17:49;;;;;;;3.63;2.77;;;13.10;99.90;;;;;;5033149;28;20194;-87
2022/11/11 13:20:48;;;;;;;5.00;2.73;;;13.10;99.90;;;;;;5033513;28;20230;-87
2022/11/11 13:23:32;;;;;;;3.20;2.47;;;13.10;99.90;;;;;;5033720;28;20217;-87
2022/11/11 13:26:34;;;;;;;2.80;2.50;;;13.10;99.90;;;;;;5033514;28;20183;-87
2022/11/11 13:29:37;;;;;;;4.30;2.60;;;13.10;99.90;;;;;;5033276;28;20202;-87
2022/11/11 13:32:27;;;;;;;3.43;2.50;;;13.10;99.90;;;;;;5032681;28;20217;-87
2022/11/11 13:35:23;;;;;;;4.40;2.17;;;13.10;99.90;;;;;;5032952;28;20237;-86
2022/11/11 13:38:22;;;;;;;3.90;3.03;;;13.10;99.90;;;;;;5046930;28;20750;-86
2022/11/11 13:41:11;;;;;;;4.50;3.27;;;13.00;99.90;;;;;;5047192;28;20166;-87
2022/11/11 13:43:59;;;;;;;5.70;3.53;;;13.10;99.90;;;;;;5047045;28;20256;-86
2022/11/11 13:46:45;;;;;;;3.60;3.07;;;13.10;99.90;;;;;;5033520;28;20207;-87
2022/11/11 13:49:45;;;;;;;4.33;2.53;;;13.00;99.90;;;;;;5029942;28;20201;-86
2022/11/11 13:52:35;;;;;;;3.03;2.80;;;13.10;99.90;;;;;;5042143;28;20221;-86
2022/11/11 13:55:42;;;;;;;4.57;2.60;;;13.10;99.90;;;;;;5042389;28;20247;-86
2022/11/11 13:58:32;;;;;;;3.87;2.77;;;13.10;99.90;;;;;;5041635;28;20245;-86
2022/11/11 14:01:21;;;;;;;4.67;3.23;;;13.10;99.90;;;;;;5042136;28;20213;-87
2022/11/11 14:04:07;;;;;;;3.40;2.90;;;13.10;99.90;;;;;;5041247;28;20706;-86
2022/11/11 14:06:55;;;;;;;6.23;3.53;;;13.20;99.90;;;;;;5041161;28;20192;-87
2022/11/11 14:09:53;;;;;;;4.50;3.03;;;13.20;99.90;;;;;;5043063;28;20173;-87
2022/11/11 14:12:41;;;;;;;3.13;2.70;;;13.20;99.90;;;;;;5040514;28;20270;-86
2022/11/11 14:15:47;;;;;;;5.97;3.40;;;13.20;99.90;;;;;;5038681;28;20213;-88
2022/11/11 14:18:42;;;;;;;4.07;3.00;;;13.20;99.90;;;;;;5037595;28;20252;-87
2022/11/11 14:21:57;;;;;;;4.77;3.20;;;13.30;99.90;;;;;;5040618;28;20170;-87
2022/11/11 14:24:46;;;;;;;3.87;3.57;;;13.20;99.90;;;;;;5038066;28;20268;-86
2022/11/11 14:27:32;;;;;;;3.70;3.20;;;13.20;99.90;;;;;;5041420;28;20181;-87
2022/11/11 14:30:37;;;;;;;3.67;2.93;;;13.10;99.90;;;;;;5040364;28;20216;-87
2022/11/11 14:33:34;;;;;;;5.37;3.70;;;13.00;99.90;;;;;;5040242;28;20716;-86
2022/11/11 14:36:58;;;;;;;3.40;2.97;;;12.90;99.90;;;;;;5055983;28;20198;-88
2022/11/11 14:39:49;;;;;;;3.17;2.87;;;12.90;99.90;;;;;;5040082;28;20201;-87
2022/11/11 14:42:34;;;;;;;3.50;2.70;;;12.80;99.90;;;;;;5040744;28;20718;-87
2022/11/11 14:45:31;;;;;;;4.90;3.60;;;12.70;99.90;;;;;;5042063;28;20200;-88
2022/11/11 14:48:49;;;;;;;5.03;3.53;;;12.70;99.90;;;;;;5041132;28;20185;-87
2022/11/11 14:51:58;;;;;;;4.77;3.80;;;12.60;99.90;;;;;;5040813;28;20189;-87
2022/11/11 14:55:15;;;;;;;9.90;5.23;;;12.50;99.90;;;;;;5045022;28;20224;-86
2022/11/11 14:58:12;;;;;;;9.30;5.53;;;12.50;99.90;;;;;;5045959;28;20209;-88
2022/11/11 15:01:05;;;;;;;10.90;6.47;;;12.40;99.90;;;;;;5040237;28;20216;-89
2022/11/11 15:03:54;;;;;;;10.17;5.50;;;12.30;99.90;;;;;;5039910;28;20213;-86
2022/11/11 15:06:50;;;;;;;18.77;10.63;;;12.20;99.90;;;;;;5030777;28;20190;-81
2022/11/11 15:10:13;;;;;;;23.50;16.17;;;12.10;99.90;;;;;;5044683;28;20229;-81
2022/11/11 15:13:20;;;;;;;10.07;6.40;;;12.00;99.90;;;;;;5044943;28;20186;-87
2022/11/11 15:16:23;;;;;;;8.70;5.77;;;11.90;99.90;;;;;;5043005;28;20271;-87
2022/11/11 15:19:38;;;;;;;11.20;7.10;;;11.70;99.90;;;;;;5029709;28;20224;-87
2022/11/11 15:22:23;;;;;;;11.53;5.90;;;11.60;99.90;;;;;;5034603;28;20189;-87
2022/11/11 15:25:24;;;;;;;8.53;5.20;;;11.50;99.90;;;;;;5032970;28;20247;-85
2022/11/11 15:28:24;;;;;;;7.30;4.80;;;11.40;99.90;;;;;;5038770;28;20184;-87
2022/11/11 15:31:33;;;;;;;6.07;4.30;;;11.30;99.90;;;;;;5044728;28;20258;-86
2022/11/11 15:34:42;;;;;;;5.50;3.77;;;11.20;99.90;;;;;;5042324;28;20216;-88
2022/11/11 15:37:28;;;;;;;4.27;3.73;;;11.10;99.90;;;;;;5032287;28;20200;-81
2022/11/11 15:40:19;;;;;;;4.90;3.27;;;11.00;99.90;;;;;;5023225;28;20172;-85
2022/11/11 15:43:04;;;;;;;4.17;2.93;;;10.90;99.90;;;;;;5035397;28;20223;-86
2022/11/11 15:45:55;;;;;;;4.40;3.10;;;10.80;99.90;;;;;;5020685;28;20202;-86
2022/11/11 15:48:45;;;;;;;4.20;3.60;;;10.70;99.90;;;;;;5014666;28;20201;-88
2022/11/11 15:51:34;;;;;;;3.50;3.00;;;10.70;99.90;;;;;;5021350;28;20227;-85
2022/11/11 15:54:25;;;;;;;4.07;3.17;;;10.60;99.90;;;;;;5019337;28;20220;-86
2022/11/11 15:57:26;;;;;;;4.57;3.00;;;10.50;99.90;;;;;;5033634;28;20192;-86
2022/11/11 16:00:27;;;;;;;5.97;3.63;;;10.40;99.90;;;;;;5030397;28;20211;-87
2022/11/11 16:03:18;;;;;;;6.33;3.50;;;10.30;99.90;;;;;;5033122;28;20224;-86
2022/11/11 16:06:15;;;;;;;6.47;4.40;;;10.20;99.90;;;;;;5019303;28;20274;-86
2022/11/11 16:09:01;;;;;;;27.07;16.97;;;10.10;99.90;;;;;;5037665;28;20191;-86
2022/11/11 16:11:46;;;;;;;7.87;5.00;;;10.00;99.90;;;;;;5034179;28;20196;-86
2022/11/11 16:14:44;;;;;;;5.57;4.47;;;9.80;99.90;;;;;;5035362;28;20221;-86